createdAt,value
2022-11-04T00:03:36.953Z,2.03
2022-11-04T00:08:39.259Z,2.47
2022-11-04T00:13:42.164Z,2.13
2022-11-04T00:18:44.459Z,3.57
2022-11-04T00:24:05.327Z,2.50
2022-11-04T00:29:07.587Z,3.00
2022-11-04T00:34:10.192Z,1.97
2022-11-04T00:39:12.475Z,2.50
2022-11-04T00:44:14.756Z,3.00
2022-11-04T00:49:17.057Z,3.77
2022-11-04T00:54:19.323Z,2.10
2022-11-04T00:59:21.580Z,2.13
2022-11-04T01:04:23.865Z,3.30
2022-11-04T01:09:26.446Z,3.30
2022-11-04T01:14:29.016Z,3.10
2022-11-04T01:19:31.418Z,2.93
2022-11-04T01:24:33.731Z,2.20
2022-11-04T01:29:36.007Z,2.83
2022-11-04T01:34:42.439Z,2.53
2022-11-04T01:39:46.147Z,3.47
2022-11-04T01:44:55.018Z,3.43
2022-11-04T01:50:13.619Z,2.60
2022-11-04T01:55:28.588Z,2.43
2022-11-04T02:00:31.563Z,3.87
2022-11-04T02:05:34.326Z,4.97
2022-11-04T02:10:37.532Z,4.30
2022-11-04T02:15:54.902Z,5.27
2022-11-04T02:21:37.359Z,2.83
2022-11-04T02:27:10.652Z,3.90
2022-11-04T02:32:34.814Z,4.47
2022-11-04T02:37:55.681Z,3.57
2022-11-04T02:43:13.031Z,5.90
2022-11-04T02:48:36.000Z,5.53
2022-11-04T02:54:25.910Z,4.33
2022-11-04T02:59:58.307Z,4.03
2022-11-04T03:05:03.319Z,3.33
2022-11-04T03:10:14.361Z,5.17
2022-11-04T03:15:25.453Z,5.80
2022-11-04T03:20:31.495Z,5.23
2022-11-04T03:25:40.859Z,4.83
2022-11-04T03:30:48.277Z,4.20
2022-11-04T03:35:50.640Z,5.77
2022-11-04T03:40:52.986Z,3.70
2022-11-04T03:45:55.635Z,5.90
2022-11-04T03:50:59.027Z,3.63
2022-11-04T03:56:17.514Z,5.27
2022-11-04T04:01:40.110Z,6.27
2022-11-04T04:06:44.244Z,4.53
2022-11-04T04:12:03.029Z,3.50
2022-11-04T04:17:12.711Z,5.83
2022-11-04T04:22:22.088Z,3.83
2022-11-04T04:27:30.874Z,4.43
2022-11-04T04:32:41.999Z,4.73
2022-11-04T04:37:45.586Z,5.50
2022-11-04T04:43:07.174Z,3.27
2022-11-04T04:48:13.609Z,4.07
2022-11-04T04:53:16.135Z,5.00
2022-11-04T04:58:18.415Z,3.43
2022-11-04T05:03:20.673Z,3.60
2022-11-04T05:08:22.932Z,4.00
2022-11-04T05:13:29.837Z,3.13
2022-11-04T05:18:32.187Z,5.20
2022-11-04T05:23:35.324Z,3.73
2022-11-04T05:28:38.543Z,3.67
2022-11-04T05:33:40.936Z,3.67
2022-11-04T05:38:44.144Z,3.20
2022-11-04T05:43:46.553Z,4.83
2022-11-04T05:48:49.100Z,4.57
2022-11-04T05:53:51.559Z,7.07
2022-11-04T05:58:54.196Z,5.20
2022-11-04T06:03:57.639Z,4.47
2022-11-04T06:09:00.548Z,4.30
2022-11-04T06:14:03.412Z,5.43
2022-11-04T06:19:09.598Z,4.63
2022-11-04T06:24:14.282Z,5.47
2022-11-04T06:29:16.665Z,3.47
2022-11-04T06:34:19.041Z,3.80
2022-11-04T06:39:21.553Z,3.33
2022-11-04T06:44:24.099Z,3.57
2022-11-04T06:49:26.516Z,4.77
2022-11-04T06:54:28.852Z,5.57
2022-11-04T06:59:31.189Z,6.97
2022-11-04T07:04:33.460Z,6.40
2022-11-04T07:09:36.279Z,5.40
2022-11-04T07:14:38.812Z,2.53
2022-11-04T07:19:41.143Z,4.20
2022-11-04T07:24:43.565Z,3.97
2022-11-04T07:29:46.148Z,3.93
2022-11-04T07:34:48.517Z,6.13
2022-11-04T07:39:50.793Z,5.03
2022-11-04T07:44:53.076Z,5.50
2022-11-04T07:49:55.457Z,3.70
2022-11-04T07:54:58.434Z,4.03
2022-11-04T08:00:00.789Z,4.27
2022-11-04T08:05:03.503Z,2.40
2022-11-04T08:10:06.650Z,4.07
2022-11-04T08:15:09.418Z,2.90
2022-11-04T08:20:12.298Z,4.30
2022-11-04T08:25:14.722Z,6.00
2022-11-04T08:30:17.000Z,2.30
2022-11-04T08:35:19.266Z,7.57
2022-11-04T08:40:21.636Z,5.07
2022-11-04T08:45:26.124Z,5.83
2022-11-04T08:50:31.023Z,4.63
2022-11-04T08:55:33.335Z,6.77
2022-11-04T09:00:36.385Z,6.03
2022-11-04T09:05:44.796Z,7.33
2022-11-04T09:10:48.832Z,7.20
2022-11-04T09:15:51.274Z,4.90
2022-11-04T09:20:54.713Z,6.13
2022-11-04T09:25:58.691Z,6.47
2022-11-04T09:31:06.342Z,3.17
2022-11-04T09:36:10.281Z,3.30
2022-11-04T09:41:44.576Z,2.67
2022-11-04T09:46:49.394Z,1.43
2022-11-04T09:51:55.319Z,2.23
2022-11-04T09:57:01.551Z,2.57
2022-11-04T10:02:42.927Z,2.37
2022-11-04T10:08:07.114Z,2.20
2022-11-04T10:13:24.294Z,1.93
2022-11-04T10:18:53.075Z,2.80
2022-11-04T10:24:27.529Z,1.43
2022-11-04T10:29:49.204Z,2.93
2022-11-04T10:35:00.461Z,1.93
2022-11-04T10:40:26.696Z,4.27
2022-11-04T10:45:38.584Z,2.13
2022-11-04T10:50:58.704Z,2.47
2022-11-04T10:56:19.442Z,1.73
2022-11-04T11:01:34.673Z,4.40
2022-11-04T11:06:37.684Z,2.83
2022-11-04T11:11:51.266Z,4.83
2022-11-04T11:16:54.540Z,3.10
2022-11-04T11:21:57.383Z,3.77
2022-11-04T11:27:11.597Z,1.97
2022-11-04T11:32:35.865Z,4.20
2022-11-04T11:37:40.556Z,3.13
2022-11-04T11:42:43.378Z,3.73
2022-11-04T11:47:47.406Z,2.93
2022-11-04T11:52:52.429Z,3.10
2022-11-04T12:09:45.672Z,2.77
2022-11-04T12:14:51.215Z,2.10
2022-11-04T12:20:30.643Z,2.83
2022-11-04T12:25:45.002Z,3.07
2022-11-04T12:31:01.992Z,3.17
2022-11-04T12:36:29.740Z,3.17
2022-11-04T12:47:44.995Z,5.07
2022-11-04T12:53:34.584Z,3.87
2022-11-04T12:58:55.826Z,5.40
2022-11-04T13:04:13.289Z,4.30
2022-11-04T13:09:36.244Z,2.50
2022-11-04T13:14:49.743Z,5.63
2022-11-04T13:19:54.695Z,3.40
2022-11-04T13:25:07.864Z,4.00
2022-11-04T13:30:27.106Z,5.50
2022-11-04T13:35:44.385Z,3.47
2022-11-04T13:41:21.705Z,4.87
2022-11-04T13:46:32.406Z,5.90
2022-11-04T13:51:36.287Z,4.90
2022-11-04T13:56:42.080Z,3.73
2022-11-04T14:01:44.795Z,5.60
2022-11-04T14:07:03.896Z,5.60
2022-11-04T14:12:17.298Z,4.67
2022-11-04T14:17:34.976Z,4.87
2022-11-04T14:22:49.172Z,6.03
2022-11-04T14:27:54.389Z,5.37
2022-11-04T14:33:03.414Z,7.50
2022-11-04T14:38:24.634Z,8.67
2022-11-04T14:43:33.298Z,6.83
2022-11-04T14:48:36.216Z,8.20
2022-11-04T14:53:41.597Z,43.23
2022-11-04T14:58:59.184Z,24.87
2022-11-04T15:04:21.383Z,11.27
2022-11-04T15:09:25.635Z,6.90
2022-11-04T15:14:28.059Z,6.30
2022-11-04T15:19:33.673Z,5.07
2022-11-04T15:24:36.543Z,7.27
2022-11-04T15:29:39.056Z,6.07
2022-11-04T15:34:41.452Z,7.77
2022-11-04T15:39:47.151Z,7.43
2022-11-04T15:44:52.017Z,6.13
2022-11-04T15:50:02.975Z,5.67
2022-11-04T15:55:05.703Z,8.10
2022-11-04T16:00:15.860Z,6.77
2022-11-04T16:05:28.607Z,4.87
2022-11-04T16:10:36.296Z,7.73
2022-11-04T16:15:42.714Z,5.70
2022-11-04T16:20:47.407Z,5.17
2022-11-04T16:26:02.185Z,5.17
2022-11-04T16:31:24.282Z,5.87
2022-11-04T16:36:34.085Z,8.37
2022-11-04T16:41:39.972Z,7.90
2022-11-04T16:46:42.253Z,6.97
2022-11-04T16:51:47.728Z,7.00
2022-11-04T16:56:50.153Z,7.03
2022-11-04T17:01:53.053Z,7.70
2022-11-04T17:06:56.312Z,7.93
2022-11-04T17:12:01.288Z,7.03
2022-11-04T17:17:04.144Z,9.17
2022-11-04T17:22:08.426Z,7.40
2022-11-04T17:27:10.666Z,8.13
2022-11-04T17:32:13.723Z,7.90
2022-11-04T17:37:16.460Z,7.57
2022-11-04T17:42:37.268Z,8.77
2022-11-04T17:47:39.526Z,10.33
2022-11-04T17:52:42.358Z,10.73
2022-11-04T17:57:44.715Z,9.33
2022-11-04T18:02:47.184Z,9.27
2022-11-04T18:07:49.559Z,10.47
2022-11-04T18:12:52.727Z,12.23
2022-11-04T18:17:55.012Z,8.33
2022-11-04T18:22:59.996Z,10.77
2022-11-04T18:28:02.298Z,9.40
2022-11-04T18:33:05.485Z,12.27
2022-11-04T18:38:07.817Z,11.27
2022-11-04T18:43:10.301Z,13.33
2022-11-04T18:48:13.030Z,11.63
2022-11-04T18:53:15.971Z,15.60
2022-11-04T18:58:18.240Z,14.07
2022-11-04T19:03:20.977Z,12.83
2022-11-04T19:08:23.278Z,13.03
2022-11-04T19:13:26.088Z,13.23
2022-11-04T19:18:28.420Z,15.17
2022-11-04T19:23:32.190Z,15.87
2022-11-04T19:28:47.772Z,17.90
2022-11-04T19:33:52.086Z,17.80
2022-11-04T19:38:55.847Z,16.73
2022-11-04T19:43:58.899Z,18.37
2022-11-04T19:49:01.320Z,18.43
2022-11-04T19:54:04.743Z,20.10
2022-11-04T19:59:08.207Z,17.83
2022-11-04T20:04:12.196Z,19.40
2022-11-04T20:09:14.679Z,16.20
2022-11-04T20:14:18.132Z,18.07
2022-11-04T20:19:22.885Z,18.97
2022-11-04T20:24:25.493Z,16.47
2022-11-04T20:29:27.784Z,18.60
2022-11-04T20:34:32.919Z,15.10
2022-11-04T20:39:35.521Z,14.03
2022-11-04T20:44:37.929Z,12.97
2022-11-04T20:49:40.265Z,10.90
2022-11-04T20:54:42.707Z,10.27
2022-11-04T20:59:45.003Z,10.83
2022-11-04T21:04:47.598Z,9.93
2022-11-04T21:09:51.047Z,9.73
2022-11-04T21:14:53.361Z,9.47
2022-11-04T21:19:55.710Z,9.77
2022-11-04T21:24:57.980Z,9.30
2022-11-04T21:30:00.259Z,8.77
2022-11-04T21:35:02.547Z,9.07
2022-11-04T21:40:05.528Z,10.13
2022-11-04T21:45:08.005Z,9.97
2022-11-04T21:50:15.205Z,9.40
2022-11-04T21:55:20.525Z,10.17
2022-11-04T22:00:22.919Z,9.60
2022-11-04T22:05:25.353Z,10.00
2022-11-04T22:10:28.650Z,10.47
2022-11-04T22:15:50.053Z,9.30
2022-11-04T22:20:52.481Z,8.13
2022-11-04T22:26:02.479Z,8.20
2022-11-04T22:31:19.589Z,9.00
2022-11-04T22:36:23.331Z,8.43
2022-11-04T22:41:29.070Z,8.30
2022-11-04T22:46:32.950Z,9.00
2022-11-04T22:51:35.222Z,10.57
2022-11-04T22:56:37.518Z,7.73
2022-11-04T23:01:40.033Z,12.53
2022-11-04T23:06:42.385Z,8.90
2022-11-04T23:12:03.272Z,9.80
2022-11-04T23:17:34.862Z,9.10
2022-11-04T23:22:56.337Z,9.43
2022-11-04T23:28:17.202Z,10.47
2022-11-04T23:33:39.492Z,10.53
2022-11-04T23:38:45.244Z,10.20
2022-11-04T23:43:50.015Z,9.60
2022-11-04T23:49:10.773Z,9.80
2022-11-04T23:54:31.467Z,9.83
2022-11-04T23:59:52.251Z,10.27
